createdAt,value
2022-11-13T00:01:18.718Z,69.81
2022-11-13T00:03:46.172Z,70.18
2022-11-13T00:06:14.407Z,70.63
2022-11-13T00:08:41.877Z,70.81
2022-11-13T00:11:13.242Z,70.64
2022-11-13T00:13:39.719Z,70.58
2022-11-13T00:16:12.166Z,70.38
2022-11-13T00:18:39.305Z,70.47
2022-11-13T00:21:08.966Z,70.47
2022-11-13T00:23:36.878Z,70.66
2022-11-13T00:26:18.995Z,70.43
2022-11-13T00:28:45.987Z,70.18
2022-11-13T00:31:15.533Z,70.20
2022-11-13T00:36:29.191Z,70.35
2022-11-13T00:38:56.359Z,69.64
2022-11-13T00:41:24.515Z,69.22
2022-11-13T00:43:51.356Z,69.09
2022-11-13T00:46:17.829Z,69.15
2022-11-13T00:48:44.529Z,69.11
2022-11-13T00:51:11.785Z,69.12
2022-11-13T00:53:38.247Z,68.73
2022-11-13T00:56:05.282Z,68.73
2022-11-13T00:58:32.080Z,68.73
2022-11-13T01:01:10.616Z,68.85
2022-11-13T01:03:37.926Z,69.07
2022-11-13T01:06:13.805Z,68.82
2022-11-13T01:08:41.155Z,68.84
2022-11-13T01:11:14.313Z,69.02
2022-11-13T01:13:43.239Z,69.00
2022-11-13T01:16:13.357Z,69.00
2022-11-13T01:18:43.841Z,69.03
2022-11-13T01:21:14.861Z,69.30
2022-11-13T01:23:41.768Z,69.92
2022-11-13T01:26:25.004Z,70.16
2022-11-13T01:28:51.766Z,70.25
2022-11-13T01:31:22.492Z,70.13
2022-11-13T01:33:49.817Z,70.36
2022-11-13T01:36:20.884Z,69.86
2022-11-13T01:38:48.292Z,69.65
2022-11-13T01:41:23.940Z,69.89
2022-11-13T01:43:53.472Z,69.51
2022-11-13T01:46:38.577Z,69.09
2022-11-13T01:49:31.648Z,69.29
2022-11-13T01:52:03.701Z,69.91
2022-11-13T01:54:37.046Z,69.77
2022-11-13T01:57:05.310Z,69.96
2022-11-13T01:59:47.042Z,69.61
2022-11-13T02:02:13.605Z,69.99
2022-11-13T02:04:40.570Z,70.09
2022-11-13T02:07:11.358Z,70.79
2022-11-13T02:09:49.312Z,70.81
2022-11-13T02:12:25.290Z,71.91
2022-11-13T02:14:54.729Z,71.46
2022-11-13T02:17:33.760Z,71.00
2022-11-13T02:20:04.354Z,71.30
2022-11-13T02:23:11.845Z,71.71
2022-11-13T02:25:40.421Z,72.26
2022-11-13T02:28:06.870Z,72.05
2022-11-13T02:30:35.840Z,71.50
2022-11-13T02:33:02.542Z,71.86
2022-11-13T02:35:35.078Z,71.31
2022-11-13T02:38:05.509Z,71.37
2022-11-13T02:40:33.930Z,71.70
2022-11-13T02:43:00.508Z,71.72
2022-11-13T02:45:27.005Z,72.15
2022-11-13T02:47:53.486Z,72.31
2022-11-13T02:50:20.021Z,72.12
2022-11-13T02:52:46.536Z,71.66
2022-11-13T02:55:13.126Z,71.53
2022-11-13T02:57:39.644Z,71.44
2022-11-13T03:00:12.433Z,71.20
2022-11-13T03:02:40.524Z,70.84
2022-11-13T03:05:12.827Z,70.42
2022-11-13T03:07:39.900Z,70.61
2022-11-13T03:10:07.367Z,70.26
2022-11-13T03:12:34.086Z,69.92
2022-11-13T03:15:01.043Z,70.15
2022-11-13T03:17:27.722Z,70.51
2022-11-13T03:19:54.173Z,70.97
2022-11-13T03:22:20.636Z,70.95
2022-11-13T03:24:47.347Z,70.56
2022-11-13T03:27:13.913Z,70.40
2022-11-13T03:29:40.430Z,70.18
2022-11-13T03:32:06.868Z,70.12
2022-11-13T03:34:33.324Z,70.30
2022-11-13T03:36:59.874Z,70.29
2022-11-13T03:39:26.325Z,70.41
2022-11-13T03:41:52.794Z,70.80
2022-11-13T03:44:19.241Z,71.25
2022-11-13T03:46:45.686Z,70.83
2022-11-13T03:49:12.157Z,71.07
2022-11-13T03:51:38.625Z,71.13
2022-11-13T03:54:05.114Z,71.71
2022-11-13T03:56:31.771Z,71.37
2022-11-13T03:58:58.392Z,71.47
2022-11-13T04:01:24.856Z,71.50
2022-11-13T04:03:51.354Z,71.75
2022-11-13T04:06:17.849Z,72.13
2022-11-13T04:08:44.348Z,72.46
2022-11-13T04:11:13.057Z,71.94
2022-11-13T04:13:39.649Z,71.81
2022-11-13T04:16:06.359Z,72.47
2022-11-13T04:18:33.132Z,72.50
2022-11-13T04:21:05.026Z,71.77
2022-11-13T04:23:32.227Z,72.57
2022-11-13T04:25:59.026Z,72.58
2022-11-13T04:28:25.546Z,72.83
2022-11-13T04:30:55.212Z,72.04
2022-11-13T04:33:21.706Z,72.55
2022-11-13T04:35:48.475Z,72.62
2022-11-13T04:38:15.594Z,72.54
2022-11-13T04:40:42.669Z,73.15
2022-11-13T04:43:09.193Z,72.92
2022-11-13T04:45:36.873Z,72.93
2022-11-13T04:48:04.186Z,72.16
2022-11-13T04:50:31.168Z,72.51
2022-11-13T04:52:57.597Z,72.13
2022-11-13T04:55:24.233Z,71.96
2022-11-13T04:57:55.476Z,71.89
2022-11-13T05:00:22.600Z,71.87
2022-11-13T05:02:49.141Z,71.81
2022-11-13T05:05:15.676Z,71.78
2022-11-13T05:07:42.489Z,71.88
2022-11-13T05:10:09.819Z,71.79
2022-11-13T05:12:36.288Z,71.88
2022-11-13T05:15:03.137Z,71.69
2022-11-13T05:17:29.582Z,71.27
2022-11-13T05:19:56.045Z,70.70
2022-11-13T05:22:22.476Z,70.91
2022-11-13T05:24:48.921Z,70.93
2022-11-13T05:27:17.502Z,70.26
2022-11-13T05:29:44.583Z,70.02
2022-11-13T05:32:11.038Z,70.12
2022-11-13T05:34:37.517Z,70.22
2022-11-13T05:37:04.257Z,70.46
2022-11-13T05:39:30.754Z,71.04
2022-11-13T05:41:57.335Z,71.47
2022-11-13T05:44:23.822Z,70.81
2022-11-13T05:46:50.290Z,70.48
2022-11-13T05:49:16.761Z,70.55
2022-11-13T05:51:43.204Z,70.65
2022-11-13T05:54:09.627Z,70.74
2022-11-13T05:56:37.271Z,70.40
2022-11-13T05:59:05.328Z,69.89
2022-11-13T06:01:39.118Z,69.55
2022-11-13T06:04:07.817Z,70.16
2022-11-13T06:06:34.860Z,71.07
2022-11-13T06:09:05.387Z,71.26
2022-11-13T06:11:32.865Z,71.19
2022-11-13T06:14:00.281Z,71.29
2022-11-13T06:16:38.649Z,71.38
2022-11-13T06:19:08.603Z,70.99
2022-11-13T06:21:39.432Z,70.64
2022-11-13T06:24:08.718Z,70.33
2022-11-13T06:26:36.795Z,70.02
2022-11-13T06:29:06.538Z,70.17
2022-11-13T06:31:36.977Z,70.40
2022-11-13T06:34:05.436Z,70.74
2022-11-13T06:36:37.023Z,70.66
2022-11-13T06:39:09.318Z,71.04
2022-11-13T06:41:38.190Z,71.19
2022-11-13T06:44:04.812Z,71.09
2022-11-13T06:46:31.979Z,71.08
2022-11-13T06:48:58.877Z,70.90
2022-11-13T06:51:29.503Z,70.66
2022-11-13T06:53:56.937Z,70.66
2022-11-13T06:56:24.044Z,70.61
2022-11-13T06:58:50.479Z,69.92
2022-11-13T07:01:21.220Z,69.81
2022-11-13T07:03:48.346Z,69.97
2022-11-13T07:06:21.804Z,70.06
2022-11-13T07:08:48.878Z,70.52
2022-11-13T07:11:18.918Z,70.66
2022-11-13T07:13:46.280Z,71.26
2022-11-13T07:16:17.740Z,71.34
2022-11-13T07:18:51.235Z,70.73
2022-11-13T07:21:18.245Z,70.69
2022-11-13T07:23:48.225Z,70.88
2022-11-13T07:26:14.719Z,70.02
2022-11-13T07:28:41.387Z,70.15
2022-11-13T07:31:11.100Z,70.68
2022-11-13T07:33:37.617Z,70.47
2022-11-13T07:36:04.585Z,70.30
2022-11-13T07:38:32.020Z,70.43
2022-11-13T07:40:59.365Z,70.46
2022-11-13T07:43:26.468Z,70.43
2022-11-13T07:45:54.802Z,70.51
2022-11-13T07:48:23.226Z,70.03
2022-11-13T07:50:50.992Z,69.62
2022-11-13T07:53:19.770Z,70.39
2022-11-13T07:55:47.470Z,70.26
2022-11-13T07:58:15.315Z,70.18
2022-11-13T08:00:41.831Z,70.46
2022-11-13T08:03:12.956Z,71.24
2022-11-13T08:05:39.857Z,70.80
2022-11-13T08:08:07.348Z,71.43
2022-11-13T08:10:33.954Z,71.13
2022-11-13T08:13:07.662Z,71.25
2022-11-13T08:15:34.896Z,71.60
2022-11-13T08:18:04.239Z,71.12
2022-11-13T08:20:32.096Z,70.74
2022-11-13T08:23:01.390Z,70.22
2022-11-13T08:25:29.871Z,70.08
2022-11-13T08:27:57.311Z,69.68
2022-11-13T08:30:26.683Z,69.40
2022-11-13T08:32:53.552Z,68.92
2022-11-13T08:35:25.138Z,69.48
2022-11-13T08:38:01.218Z,69.93
2022-11-13T08:40:27.704Z,70.49
2022-11-13T08:43:02.449Z,70.18
2022-11-13T08:45:30.687Z,70.56
2022-11-13T08:48:04.899Z,70.14
2022-11-13T08:50:33.770Z,70.16
2022-11-13T08:53:01.527Z,69.79
2022-11-13T08:55:28.478Z,69.57
2022-11-13T08:58:01.765Z,69.60
2022-11-13T09:00:30.428Z,69.09
2022-11-13T09:02:59.559Z,68.68
2022-11-13T09:05:26.754Z,68.45
2022-11-13T09:07:59.397Z,68.17
2022-11-13T09:10:27.540Z,67.98
2022-11-13T09:13:03.794Z,68.36
2022-11-13T09:15:32.506Z,68.08
2022-11-13T09:18:01.423Z,67.65
2022-11-13T09:20:31.045Z,67.71
2022-11-13T09:23:04.204Z,67.39
2022-11-13T09:25:37.571Z,67.13
2022-11-13T09:28:06.700Z,67.18
2022-11-13T09:30:33.780Z,66.48
2022-11-13T09:33:01.273Z,66.12
2022-11-13T09:35:36.115Z,66.32
2022-11-13T09:38:10.399Z,66.09
2022-11-13T09:40:58.823Z,65.47
2022-11-13T09:44:00.121Z,65.35
2022-11-13T09:47:08.713Z,64.76
2022-11-13T09:49:45.660Z,65.07
2022-11-13T09:52:34.534Z,64.24
2022-11-13T09:55:01.294Z,64.00
2022-11-13T09:57:51.242Z,63.53
2022-11-13T10:00:22.455Z,63.70
2022-11-13T10:03:39.438Z,63.73
2022-11-13T10:06:20.980Z,63.68
2022-11-13T10:09:24.799Z,62.37
2022-11-13T10:12:02.942Z,62.54
2022-11-13T10:14:36.650Z,62.54
2022-11-13T10:17:33.335Z,60.60
2022-11-13T10:20:05.363Z,61.77
2022-11-13T10:22:40.479Z,61.33
2022-11-13T10:25:18.201Z,60.07
2022-11-13T10:28:07.483Z,60.55
2022-11-13T10:30:42.757Z,60.87
2022-11-13T10:33:16.571Z,60.52
2022-11-13T10:36:06.470Z,59.93
2022-11-13T10:38:53.713Z,58.24
2022-11-13T10:41:21.775Z,57.96
2022-11-13T10:44:17.913Z,57.54
2022-11-13T10:46:44.386Z,57.92
2022-11-13T10:49:21.565Z,57.25
2022-11-13T10:52:01.032Z,56.16
2022-11-13T10:54:33.129Z,56.45
2022-11-13T10:57:28.385Z,55.34
2022-11-13T10:59:55.005Z,54.73
2022-11-13T11:02:26.227Z,54.06
2022-11-13T11:05:16.000Z,53.82
2022-11-13T11:07:42.755Z,54.33
2022-11-13T11:10:21.299Z,53.23
2022-11-13T11:13:07.054Z,51.21
2022-11-13T11:15:48.622Z,52.94
2022-11-13T11:18:40.839Z,50.39
2022-11-13T11:21:17.521Z,53.16
2022-11-13T11:24:11.358Z,52.99
2022-11-13T11:26:54.410Z,53.25
2022-11-13T11:29:51.807Z,52.95
2022-11-13T11:32:45.133Z,54.08
2022-11-13T11:35:43.357Z,51.94
2022-11-13T11:38:27.075Z,53.56
2022-11-13T11:41:05.142Z,53.22
2022-11-13T11:43:43.883Z,50.82
2022-11-13T11:46:22.329Z,52.25
2022-11-13T11:48:50.787Z,51.95
2022-11-13T11:51:30.964Z,51.65
2022-11-13T11:54:28.762Z,51.74
2022-11-13T11:57:37.376Z,50.97
2022-11-13T12:00:15.203Z,50.46
2022-11-13T12:02:56.481Z,50.82
2022-11-13T12:05:29.986Z,49.16
2022-11-13T12:08:22.106Z,47.88
2022-11-13T12:11:17.230Z,48.83
2022-11-13T12:13:58.878Z,49.22
2022-11-13T12:16:59.188Z,48.35
2022-11-13T12:19:54.829Z,47.10
2022-11-13T12:22:46.634Z,46.59
2022-11-13T12:25:27.601Z,46.89
2022-11-13T12:28:14.914Z,47.00
2022-11-13T12:31:12.270Z,48.00
2022-11-13T12:34:07.443Z,48.82
2022-11-13T12:36:35.312Z,49.90
2022-11-13T12:39:40.349Z,47.97
2022-11-13T12:43:09.187Z,45.44
2022-11-13T12:45:38.694Z,47.39
2022-11-13T12:48:19.963Z,46.06
2022-11-13T12:51:02.984Z,46.69
2022-11-13T12:53:44.903Z,46.29
2022-11-13T12:56:25.950Z,45.61
2022-11-13T12:59:29.197Z,46.47
2022-11-13T13:02:00.820Z,47.45
2022-11-13T13:05:01.424Z,47.02
2022-11-13T13:08:05.029Z,47.66
2022-11-13T13:11:15.439Z,46.12
2022-11-13T13:14:02.274Z,47.20
2022-11-13T13:16:29.802Z,47.37
2022-11-13T13:19:28.714Z,45.38
2022-11-13T13:21:55.547Z,46.40
2022-11-13T13:24:40.017Z,43.96
2022-11-13T13:27:27.253Z,44.67
2022-11-13T13:29:53.849Z,44.92
2022-11-13T13:32:50.820Z,44.33
2022-11-13T13:35:29.926Z,44.40
2022-11-13T13:38:18.403Z,39.53
2022-11-13T13:41:12.826Z,42.62
2022-11-13T13:44:02.017Z,40.42
2022-11-13T13:46:34.694Z,41.60
2022-11-13T13:49:14.479Z,40.96
2022-11-13T13:51:48.948Z,41.91
2022-11-13T13:54:23.364Z,42.66
2022-11-13T13:56:50.180Z,44.03
2022-11-13T13:59:25.168Z,44.06
2022-11-13T14:01:58.992Z,43.23
2022-11-13T14:04:29.338Z,43.18
2022-11-13T14:07:02.226Z,43.10
2022-11-13T14:09:30.744Z,43.79
2022-11-13T14:12:21.536Z,42.28
2022-11-13T14:14:49.127Z,43.89
2022-11-13T14:17:25.026Z,43.80
2022-11-13T14:20:00.547Z,43.70
2022-11-13T14:22:27.960Z,44.63
2022-11-13T14:25:00.659Z,44.38
2022-11-13T14:27:28.945Z,44.33
2022-11-13T14:29:59.929Z,44.00
2022-11-13T14:32:41.889Z,44.14
2022-11-13T14:35:21.807Z,43.27
2022-11-13T14:37:48.979Z,44.24
2022-11-13T14:40:25.486Z,42.88
2022-11-13T14:42:58.557Z,44.03
2022-11-13T14:45:31.474Z,44.19
2022-11-13T14:48:22.806Z,43.69
2022-11-13T14:50:58.196Z,44.17
2022-11-13T14:53:41.478Z,43.30
2022-11-13T14:56:11.483Z,44.39
2022-11-13T14:58:47.222Z,44.00
2022-11-13T15:01:16.555Z,44.26
2022-11-13T15:03:48.921Z,44.63
2022-11-13T15:06:20.394Z,44.88
2022-11-13T15:08:48.747Z,44.88
2022-11-13T15:11:18.537Z,45.40
2022-11-13T15:13:46.165Z,45.11
2022-11-13T15:16:24.690Z,45.46
2022-11-13T15:19:04.405Z,46.80
2022-11-13T15:21:32.042Z,47.12
2022-11-13T15:23:58.583Z,47.34
2022-11-13T15:26:25.057Z,47.49
2022-11-13T15:28:51.511Z,47.34
2022-11-13T15:31:26.229Z,47.57
2022-11-13T15:33:53.000Z,48.08
2022-11-13T15:36:19.468Z,48.86
2022-11-13T15:38:45.988Z,49.20
2022-11-13T15:41:18.306Z,48.62
2022-11-13T15:43:56.386Z,48.99
2022-11-13T15:46:24.758Z,49.66
2022-11-13T15:48:51.416Z,49.87
2022-11-13T15:51:27.950Z,49.95
2022-11-13T15:54:02.082Z,50.33
2022-11-13T15:56:30.909Z,50.48
2022-11-13T15:58:57.351Z,50.60
2022-11-13T16:01:24.085Z,50.73
2022-11-13T16:03:51.545Z,50.92
2022-11-13T16:06:22.384Z,51.24
2022-11-13T16:08:49.697Z,51.69
2022-11-13T16:11:19.233Z,52.45
2022-11-13T16:13:46.810Z,52.48
2022-11-13T16:16:26.963Z,52.02
2022-11-13T16:18:58.782Z,52.65
2022-11-13T16:21:28.026Z,53.19
2022-11-13T16:23:54.461Z,53.14
2022-11-13T16:26:24.812Z,52.84
2022-11-13T16:29:12.691Z,53.16
2022-11-13T16:31:39.921Z,53.32
2022-11-13T16:34:06.359Z,53.53
2022-11-13T16:36:32.902Z,53.86
2022-11-13T16:38:59.388Z,53.17
2022-11-13T16:41:26.094Z,53.35
2022-11-13T16:43:52.654Z,53.60
2022-11-13T16:46:35.617Z,53.96
2022-11-13T16:49:02.083Z,54.51
2022-11-13T16:51:28.625Z,55.64
2022-11-13T16:53:55.051Z,54.96
2022-11-13T16:56:30.610Z,54.84
2022-11-13T16:58:58.884Z,55.60
2022-11-13T17:01:26.186Z,56.07
2022-11-13T17:03:52.703Z,56.42
2022-11-13T17:06:27.563Z,56.38
2022-11-13T17:08:56.667Z,56.26
2022-11-13T17:11:26.113Z,56.31
2022-11-13T17:13:55.595Z,56.51
2022-11-13T17:16:24.064Z,56.20
2022-11-13T17:18:52.786Z,56.26
2022-11-13T17:21:24.769Z,56.33
2022-11-13T17:23:59.558Z,56.63
2022-11-13T17:26:27.698Z,56.62
2022-11-13T17:28:54.658Z,56.66
2022-11-13T17:31:21.672Z,55.98
2022-11-13T17:33:48.329Z,56.25
2022-11-13T17:36:15.048Z,56.08
2022-11-13T17:38:41.587Z,56.52
2022-11-13T17:41:12.171Z,56.68
2022-11-13T17:43:41.073Z,57.03
2022-11-13T17:46:12.625Z,57.20
2022-11-13T17:48:39.335Z,57.04
2022-11-13T17:51:09.724Z,57.15
2022-11-13T17:53:36.173Z,57.97
2022-11-13T17:56:08.015Z,58.15
2022-11-13T17:58:39.885Z,58.59
2022-11-13T18:01:12.790Z,58.88
2022-11-13T18:03:40.029Z,59.26
2022-11-13T18:06:19.505Z,58.82
2022-11-13T18:08:47.090Z,58.47
2022-11-13T18:11:23.743Z,58.56
2022-11-13T18:13:50.865Z,59.73
2022-11-13T18:16:26.660Z,59.44
2022-11-13T18:18:56.330Z,59.20
2022-11-13T18:21:28.823Z,59.16
2022-11-13T18:24:08.053Z,59.73
2022-11-13T18:26:34.834Z,59.63
2022-11-13T18:29:03.021Z,59.88
2022-11-13T18:31:30.493Z,59.98
2022-11-13T18:34:02.484Z,59.54
2022-11-13T18:36:29.479Z,60.62
2022-11-13T18:38:55.973Z,60.31
2022-11-13T18:41:23.212Z,60.31
2022-11-13T18:43:51.897Z,60.78
2022-11-13T18:46:21.799Z,60.32
2022-11-13T18:48:49.629Z,60.46
2022-11-13T18:51:24.123Z,60.22
2022-11-13T18:53:52.843Z,60.89
2022-11-13T18:56:28.865Z,61.11
2022-11-13T18:58:57.357Z,61.92
2022-11-13T19:01:33.606Z,61.73
2022-11-13T19:06:52.346Z,61.58
2022-11-13T19:09:19.657Z,60.88
2022-11-13T19:11:46.756Z,60.95
2022-11-13T19:14:17.397Z,61.26
2022-11-13T19:16:43.919Z,61.93
2022-11-13T19:19:22.459Z,62.05
2022-11-13T19:21:50.774Z,61.77
2022-11-13T19:24:17.622Z,62.44
2022-11-13T19:26:45.801Z,61.94
2022-11-13T19:29:12.516Z,61.89
2022-11-13T19:31:39.168Z,61.82
2022-11-13T19:34:07.863Z,61.17
2022-11-13T19:36:36.218Z,60.93
2022-11-13T19:39:04.137Z,60.75
2022-11-13T19:41:30.827Z,60.51
2022-11-13T19:43:59.575Z,60.55
2022-11-13T19:46:26.875Z,60.75
2022-11-13T19:48:54.253Z,60.50
2022-11-13T19:51:24.872Z,61.25
2022-11-13T19:53:56.992Z,61.94
2022-11-13T19:56:25.423Z,62.19
2022-11-13T19:58:52.803Z,62.64
2022-11-13T20:01:23.398Z,62.46
2022-11-13T20:04:00.159Z,62.22
2022-11-13T20:06:27.994Z,63.72
2022-11-13T20:08:54.769Z,62.47
2022-11-13T20:11:21.259Z,62.50
2022-11-13T20:13:47.744Z,62.49
2022-11-13T20:16:16.593Z,62.49
2022-11-13T20:18:44.464Z,63.24
2022-11-13T20:21:11.086Z,63.44
2022-11-13T20:23:38.416Z,63.32
2022-11-13T20:26:10.275Z,63.28
2022-11-13T20:28:36.738Z,63.32
2022-11-13T20:31:16.325Z,62.40
2022-11-13T20:33:43.356Z,63.12
2022-11-13T20:36:09.875Z,63.73
2022-11-13T20:38:37.375Z,63.61
2022-11-13T20:41:10.794Z,63.48
2022-11-13T20:43:37.888Z,63.81
2022-11-13T20:46:11.884Z,64.63
2022-11-13T20:48:38.483Z,63.77
2022-11-13T20:51:19.362Z,63.22
2022-11-13T20:53:47.018Z,63.15
2022-11-13T20:56:14.333Z,62.78
2022-11-13T20:58:41.055Z,63.01
2022-11-13T21:01:14.286Z,62.89
2022-11-13T21:03:43.947Z,63.36
2022-11-13T21:06:14.110Z,63.96
2022-11-13T21:08:40.917Z,64.25
2022-11-13T21:11:11.978Z,64.08
2022-11-13T21:13:38.422Z,63.91
2022-11-13T21:16:09.849Z,63.42
2022-11-13T21:18:36.869Z,63.51
2022-11-13T21:21:12.897Z,63.28
2022-11-13T21:23:40.030Z,63.04
2022-11-13T21:26:08.682Z,63.45
2022-11-13T21:28:35.836Z,63.63
2022-11-13T21:31:15.421Z,63.54
2022-11-13T21:33:44.532Z,63.10
2022-11-13T21:36:25.648Z,63.25
2022-11-13T21:38:54.343Z,63.98
2022-11-13T21:41:27.327Z,63.71
2022-11-13T21:44:04.705Z,63.92
2022-11-13T21:46:45.575Z,64.56
2022-11-13T21:49:13.348Z,64.37
2022-11-13T21:51:42.935Z,63.86
2022-11-13T21:54:10.431Z,64.03
2022-11-13T21:56:41.489Z,63.74
2022-11-13T21:59:08.530Z,64.28
2022-11-13T22:01:38.382Z,64.29
2022-11-13T22:04:06.529Z,63.99
2022-11-13T22:06:39.483Z,64.01
2022-11-13T22:09:17.854Z,64.44
2022-11-13T22:11:45.113Z,63.83
2022-11-13T22:14:12.053Z,64.31
2022-11-13T22:16:42.653Z,64.53
2022-11-13T22:19:21.376Z,63.95
2022-11-13T22:21:52.132Z,64.07
2022-11-13T22:24:19.764Z,63.63
2022-11-13T22:26:50.635Z,64.20
2022-11-13T22:29:17.427Z,63.75
2022-11-13T22:31:44.796Z,63.96
2022-11-13T22:34:11.449Z,64.24
2022-11-13T22:36:38.094Z,64.31
2022-11-13T22:39:05.282Z,64.61
2022-11-13T22:41:34.780Z,64.92
2022-11-13T22:44:12.191Z,64.71
2022-11-13T22:46:38.670Z,65.67
2022-11-13T22:49:06.746Z,65.36
2022-11-13T22:51:40.910Z,65.12
2022-11-13T22:54:10.943Z,65.58
2022-11-13T22:56:40.452Z,64.78
2022-11-13T22:59:10.648Z,65.39
2022-11-13T23:01:39.666Z,65.08
2022-11-13T23:04:11.846Z,64.98
2022-11-13T23:06:38.385Z,65.48
2022-11-13T23:09:06.132Z,65.80
2022-11-13T23:11:40.047Z,66.41
2022-11-13T23:14:12.349Z,66.38
2022-11-13T23:16:39.222Z,66.72
2022-11-13T23:19:06.052Z,67.18
2022-11-13T23:21:33.407Z,66.75
2022-11-13T23:24:02.194Z,66.35
2022-11-13T23:26:28.810Z,65.49
2022-11-13T23:28:56.562Z,65.28
2022-11-13T23:31:23.518Z,65.58
2022-11-13T23:33:50.185Z,65.43
2022-11-13T23:36:17.970Z,64.91
2022-11-13T23:38:45.174Z,64.63
2022-11-13T23:41:12.497Z,64.91
2022-11-13T23:44:08.158Z,65.23
2022-11-13T23:46:25.652Z,65.06
2022-11-13T23:48:52.168Z,65.28
2022-11-13T23:51:18.613Z,65.80
2022-11-13T23:53:45.105Z,66.10
2022-11-13T23:56:11.538Z,66.30
2022-11-13T23:58:37.980Z,66.29
